sensor_id;sensor_type;location;lat;lon;timestamp;pressure;altitude;pressure_sealevel;temperature;humidity
8320;BME280;4197;42.130;24.746;2023-01-29T00:00:11;99669.34;;;3.25;88.04
8320;BME280;4197;42.130;24.746;2023-01-29T00:02:40;99672.22;;;3.28;88.13
8320;BME280;4197;42.130;24.746;2023-01-29T00:05:08;99661.69;;;3.32;87.39
8320;BME280;4197;42.130;24.746;2023-01-29T00:07:54;99663.50;;;3.23;88.03
8320;BME280;4197;42.130;24.746;2023-01-29T00:10:24;99670.66;;;3.27;88.00
8320;BME280;4197;42.130;24.746;2023-01-29T00:12:52;99679.38;;;3.33;87.55
8320;BME280;4197;42.130;24.746;2023-01-29T00:15:20;99684.53;;;3.29;88.34
8320;BME280;4197;42.130;24.746;2023-01-29T00:17:48;99674.91;;;3.28;87.52
8320;BME280;4197;42.130;24.746;2023-01-29T00:20:16;99682.16;;;3.28;88.07
8320;BME280;4197;42.130;24.746;2023-01-29T00:22:45;99685.53;;;3.33;87.41
8320;BME280;4197;42.130;24.746;2023-01-29T00:25:14;99684.94;;;3.37;88.38
8320;BME280;4197;42.130;24.746;2023-01-29T00:27:42;99691.69;;;3.34;88.23
8320;BME280;4197;42.130;24.746;2023-01-29T00:30:11;99695.53;;;3.42;88.02
8320;BME280;4197;42.130;24.746;2023-01-29T00:32:45;99691.69;;;3.34;88.60
8320;BME280;4197;42.130;24.746;2023-01-29T00:35:13;99697.13;;;3.29;88.10
8320;BME280;4197;42.130;24.746;2023-01-29T00:37:41;99694.47;;;3.29;87.91
8320;BME280;4197;42.130;24.746;2023-01-29T00:40:10;99704.91;;;3.30;87.77
8320;BME280;4197;42.130;24.746;2023-01-29T00:42:39;99690.09;;;3.19;88.64
8320;BME280;4197;42.130;24.746;2023-01-29T00:45:25;99690.91;;;3.20;87.99
8320;BME280;4197;42.130;24.746;2023-01-29T00:47:53;99702.41;;;3.20;88.08
8320;BME280;4197;42.130;24.746;2023-01-29T00:50:21;99693.06;;;3.18;88.65
8320;BME280;4197;42.130;24.746;2023-01-29T00:52:49;99693.88;;;3.18;88.52
8320;BME280;4197;42.130;24.746;2023-01-29T00:55:18;99695.25;;;3.16;88.41
8320;BME280;4197;42.130;24.746;2023-01-29T00:57:48;99699.03;;;3.15;88.79
8320;BME280;4197;42.130;24.746;2023-01-29T01:00:17;99697.66;;;3.17;88.00
8320;BME280;4197;42.130;24.746;2023-01-29T01:02:46;99698.75;;;3.16;88.23
8320;BME280;4197;42.130;24.746;2023-01-29T01:05:31;99694.28;;;3.11;88.33
8320;BME280;4197;42.130;24.746;2023-01-29T01:07:59;99694.09;;;3.08;88.21
8320;BME280;4197;42.130;24.746;2023-01-29T01:10:30;99695.66;;;3.09;88.88
8320;BME280;4197;42.130;24.746;2023-01-29T01:13:00;99702.41;;;3.06;88.75
8320;BME280;4197;42.130;24.746;2023-01-29T01:15:30;99691.88;;;3.10;89.15
8320;BME280;4197;42.130;24.746;2023-01-29T01:17:59;99692.19;;;3.08;89.65
8320;BME280;4197;42.130;24.746;2023-01-29T01:20:30;99694.38;;;3.06;89.41
8320;BME280;4197;42.130;24.746;2023-01-29T01:23:00;99704.56;;;3.04;89.51
8320;BME280;4197;42.130;24.746;2023-01-29T01:25:28;99700.72;;;2.97;90.88
8320;BME280;4197;42.130;24.746;2023-01-29T01:27:59;99705.19;;;3.01;90.28
8320;BME280;4197;42.130;24.746;2023-01-29T01:30:27;99699.22;;;3.04;90.47
8320;BME280;4197;42.130;24.746;2023-01-29T01:32:55;99707.75;;;3.06;90.03
8320;BME280;4197;42.130;24.746;2023-01-29T01:35:24;99705.59;;;3.08;90.30
8320;BME280;4197;42.130;24.746;2023-01-29T01:37:52;99701.31;;;3.07;90.58
8320;BME280;4197;42.130;24.746;2023-01-29T01:40:21;99706.19;;;3.05;90.24
8320;BME280;4197;42.130;24.746;2023-01-29T01:42:52;99709.34;;;3.07;90.07
8320;BME280;4197;42.130;24.746;2023-01-29T01:45:24;99696.44;;;3.09;90.43
8320;BME280;4197;42.130;24.746;2023-01-29T01:47:56;99699.63;;;3.11;90.37
8320;BME280;4197;42.130;24.746;2023-01-29T01:50:31;99698.84;;;3.11;90.27
8320;BME280;4197;42.130;24.746;2023-01-29T01:53:03;99696.75;;;3.08;89.86
8320;BME280;4197;42.130;24.746;2023-01-29T01:55:34;99704.09;;;3.02;89.83
8320;BME280;4197;42.130;24.746;2023-01-29T01:58:08;99700.72;;;2.97;90.28
8320;BME280;4197;42.130;24.746;2023-01-29T02:00:39;99705.97;;;3.02;90.74
8320;BME280;4197;42.130;24.746;2023-01-29T02:03:08;99705.09;;;3.06;90.45
8320;BME280;4197;42.130;24.746;2023-01-29T02:05:57;99699.31;;;3.13;89.78
8320;BME280;4197;42.130;24.746;2023-01-29T02:08:50;99701.31;;;3.07;89.99
8320;BME280;4197;42.130;24.746;2023-01-29T02:11:37;99709.34;;;3.07;90.38
8320;BME280;4197;42.130;24.746;2023-01-29T02:14:05;99704.19;;;3.11;90.84
8320;BME280;4197;42.130;24.746;2023-01-29T02:16:35;99704.69;;;3.13;90.67
8320;BME280;4197;42.130;24.746;2023-01-29T02:19:07;99706.97;;;3.06;90.73
8320;BME280;4197;42.130;24.746;2023-01-29T02:21:56;99708.06;;;3.05;91.53
8320;BME280;4197;42.130;24.746;2023-01-29T02:24:48;99712.34;;;3.06;92.19
8320;BME280;4197;42.130;24.746;2023-01-29T02:27:32;99722.16;;;3.10;91.77
8320;BME280;4197;42.130;24.746;2023-01-29T02:30:14;99718.88;;;3.13;91.99
8320;BME280;4197;42.130;24.746;2023-01-29T02:32:48;99726.13;;;3.13;91.81
8320;BME280;4197;42.130;24.746;2023-01-29T02:35:27;99725.63;;;3.11;92.26
8320;BME280;4197;42.130;24.746;2023-01-29T02:38:07;99726.44;;;3.11;93.25
8320;BME280;4197;42.130;24.746;2023-01-29T02:40:41;99725.41;;;3.07;93.73
8320;BME280;4197;42.130;24.746;2023-01-29T02:43:22;99726.00;;;3.04;94.74
8320;BME280;4197;42.130;24.746;2023-01-29T02:46:00;99728.50;;;3.01;95.19
8320;BME280;4197;42.130;24.746;2023-01-29T02:48:39;99730.31;;;3.05;95.25
8320;BME280;4197;42.130;24.746;2023-01-29T02:51:14;99731.47;;;3.13;94.46
8320;BME280;4197;42.130;24.746;2023-01-29T02:53:50;99731.19;;;3.15;94.91
8320;BME280;4197;42.130;24.746;2023-01-29T02:56:24;99738.94;;;3.16;94.76
8320;BME280;4197;42.130;24.746;2023-01-29T02:58:59;99738.94;;;3.16;95.26
8320;BME280;4197;42.130;24.746;2023-01-29T03:01:34;99736.94;;;3.08;95.69
8320;BME280;4197;42.130;24.746;2023-01-29T03:04:10;99738.34;;;3.05;96.36
8320;BME280;4197;42.130;24.746;2023-01-29T03:06:42;99732.97;;;3.05;96.38
8320;BME280;4197;42.130;24.746;2023-01-29T03:09:21;99738.25;;;3.10;96.33
8320;BME280;4197;42.130;24.746;2023-01-29T03:11:51;99739.31;;;3.09;96.47
8320;BME280;4197;42.130;24.746;2023-01-29T03:14:24;99739.41;;;3.04;97.39
8320;BME280;4197;42.130;24.746;2023-01-29T03:17:15;99742.31;;;3.08;97.16
8320;BME280;4197;42.130;24.746;2023-01-29T03:19:45;99749.94;;;3.15;96.45
8320;BME280;4197;42.130;24.746;2023-01-29T03:22:14;99752.44;;;3.11;96.32
8320;BME280;4197;42.130;24.746;2023-01-29T03:24:48;99759.19;;;3.08;96.59
8320;BME280;4197;42.130;24.746;2023-01-29T03:27:39;99759.19;;;3.08;96.17
8320;BME280;4197;42.130;24.746;2023-01-29T03:30:27;99757.88;;;3.06;96.33
8320;BME280;4197;42.130;24.746;2023-01-29T03:33:17;99760.66;;;3.15;96.22
8320;BME280;4197;42.130;24.746;2023-01-29T03:35:50;99763.63;;;3.13;95.92
8320;BME280;4197;42.130;24.746;2023-01-29T03:38:20;99766.13;;;3.09;96.03
8320;BME280;4197;42.130;24.746;2023-01-29T03:40:52;99760.75;;;3.09;95.54
8320;BME280;4197;42.130;24.746;2023-01-29T03:43:29;99765.59;;;3.07;95.19
8320;BME280;4197;42.130;24.746;2023-01-29T03:46:04;99766.72;;;3.06;96.20
8320;BME280;4197;42.130;24.746;2023-01-29T03:48:38;99774.75;;;3.06;96.10
8320;BME280;4197;42.130;24.746;2023-01-29T03:51:15;99770.69;;;3.09;95.42
8320;BME280;4197;42.130;24.746;2023-01-29T03:53:50;99773.88;;;3.11;95.30
8320;BME280;4197;42.130;24.746;2023-01-29T03:56:31;99778.53;;;3.05;95.22
8320;BME280;4197;42.130;24.746;2023-01-29T03:59:05;99785.16;;;2.94;95.61
8320;BME280;4197;42.130;24.746;2023-01-29T04:01:44;99776.81;;;2.96;96.10
8320;BME280;4197;42.130;24.746;2023-01-29T04:04:18;99786.72;;;2.95;96.17
8320;BME280;4197;42.130;24.746;2023-01-29T04:06:50;99794.25;;;2.93;96.50
8320;BME280;4197;42.130;24.746;2023-01-29T04:09:22;99782.56;;;2.89;97.57
8320;BME280;4197;42.130;24.746;2023-01-29T04:12:02;99792.97;;;2.90;97.30
8320;BME280;4197;42.130;24.746;2023-01-29T04:14:33;99801.72;;;2.96;97.20
8320;BME280;4197;42.130;24.746;2023-01-29T04:17:07;99800.81;;;2.87;97.95
8320;BME280;4197;42.130;24.746;2023-01-29T04:19:37;99805.16;;;2.83;99.12
8320;BME280;4197;42.130;24.746;2023-01-29T04:22:09;99804.06;;;2.84;100.00
8320;BME280;4197;42.130;24.746;2023-01-29T04:24:41;99805.88;;;2.88;100.00
8320;BME280;4197;42.130;24.746;2023-01-29T04:27:22;99808.56;;;2.88;100.00
8320;BME280;4197;42.130;24.746;2023-01-29T04:30:02;99808.31;;;2.85;100.00
8320;BME280;4197;42.130;24.746;2023-01-29T04:32:41;99805.72;;;2.80;100.00
8320;BME280;4197;42.130;24.746;2023-01-29T04:35:25;99812.63;;;2.86;100.00
8320;BME280;4197;42.130;24.746;2023-01-29T04:38:05;99817.75;;;2.82;100.00
8320;BME280;4197;42.130;24.746;2023-01-29T04:40:46;99816.59;;;2.88;100.00
8320;BME280;4197;42.130;24.746;2023-01-29T04:43:23;99807.84;;;2.83;100.00
8320;BME280;4197;42.130;24.746;2023-01-29T04:46:05;99817.66;;;2.87;100.00
8320;BME280;4197;42.130;24.746;2023-01-29T04:48:43;99819.53;;;2.87;100.00
8320;BME280;4197;42.130;24.746;2023-01-29T04:51:19;99821.94;;;2.88;100.00
8320;BME280;4197;42.130;24.746;2023-01-29T04:53:53;99820.72;;;2.81;100.00
8320;BME280;4197;42.130;24.746;2023-01-29T04:56:28;99823.19;;;2.77;100.00
8320;BME280;4197;42.130;24.746;2023-01-29T04:59:03;99822.69;;;2.75;100.00
8320;BME280;4197;42.130;24.746;2023-01-29T05:01:32;99822.78;;;2.70;100.00
8320;BME280;4197;42.130;24.746;2023-01-29T05:04:06;99831.47;;;2.62;100.00
8320;BME280;4197;42.130;24.746;2023-01-29T05:06:37;99835.00;;;2.57;100.00
8320;BME280;4197;42.130;24.746;2023-01-29T05:09:06;99831.31;;;2.53;100.00
8320;BME280;4197;42.130;24.746;2023-01-29T05:11:35;99836.38;;;2.55;100.00
8320;BME280;4197;42.130;24.746;2023-01-29T05:14:05;99836.63;;;2.58;100.00
8320;BME280;4197;42.130;24.746;2023-01-29T05:16:39;99834.72;;;2.59;100.00
8320;BME280;4197;42.130;24.746;2023-01-29T05:19:10;99840.28;;;2.62;100.00
8320;BME280;4197;42.130;24.746;2023-01-29T05:21:42;99839.13;;;2.68;100.00
8320;BME280;4197;42.130;24.746;2023-01-29T05:24:13;99844.00;;;2.66;100.00
8320;BME280;4197;42.130;24.746;2023-01-29T05:26:43;99839.22;;;2.63;100.00
8320;BME280;4197;42.130;24.746;2023-01-29T05:29:29;99838.56;;;2.72;100.00
8320;BME280;4197;42.130;24.746;2023-01-29T05:31:57;99846.78;;;2.75;100.00
8320;BME280;4197;42.130;24.746;2023-01-29T05:34:25;99850.84;;;2.73;100.00
8320;BME280;4197;42.130;24.746;2023-01-29T05:36:55;99857.31;;;2.72;100.00
8320;BME280;4197;42.130;24.746;2023-01-29T05:39:23;99853.53;;;2.73;100.00
8320;BME280;4197;42.130;24.746;2023-01-29T05:41:51;99855.34;;;2.77;100.00
8320;BME280;4197;42.130;24.746;2023-01-29T05:44:19;99855.69;;;2.71;100.00
8320;BME280;4197;42.130;24.746;2023-01-29T05:46:48;99853.81;;;2.71;100.00
8320;BME280;4197;42.130;24.746;2023-01-29T05:49:17;99859.97;;;2.72;100.00
8320;BME280;4197;42.130;24.746;2023-01-29T05:51:46;99860.38;;;2.79;100.00
8320;BME280;4197;42.130;24.746;2023-01-29T05:54:15;99865.47;;;2.80;100.00
8320;BME280;4197;42.130;24.746;2023-01-29T05:56:43;99867.25;;;2.85;100.00
8320;BME280;4197;42.130;24.746;2023-01-29T05:59:11;99876.47;;;2.79;100.00
8320;BME280;4197;42.130;24.746;2023-01-29T06:01:40;99877.75;;;2.81;100.00
8320;BME280;4197;42.130;24.746;2023-01-29T06:04:08;99879.66;;;2.81;100.00
8320;BME280;4197;42.130;24.746;2023-01-29T06:06:36;99877.56;;;2.78;100.00
8320;BME280;4197;42.130;24.746;2023-01-29T06:09:04;99876.97;;;2.81;100.00
8320;BME280;4197;42.130;24.746;2023-01-29T06:11:34;99881.75;;;2.84;100.00
8320;BME280;4197;42.130;24.746;2023-01-29T06:14:02;99886.44;;;2.92;100.00
8320;BME280;4197;42.130;24.746;2023-01-29T06:16:31;99891.94;;;2.82;100.00
8320;BME280;4197;42.130;24.746;2023-01-29T06:18:59;99886.66;;;2.77;100.00
8320;BME280;4197;42.130;24.746;2023-01-29T06:21:28;99895.78;;;2.76;100.00
8320;BME280;4197;42.130;24.746;2023-01-29T06:23:56;99892.84;;;2.77;100.00
8320;BME280;4197;42.130;24.746;2023-01-29T06:26:24;99890.94;;;2.78;100.00
8320;BME280;4197;42.130;24.746;2023-01-29T06:28:53;99900.03;;;2.77;100.00
8320;BME280;4197;42.130;24.746;2023-01-29T06:31:23;99902.66;;;2.82;100.00
8320;BME280;4197;42.130;24.746;2023-01-29T06:34:04;99912.91;;;2.94;100.00
8320;BME280;4197;42.130;24.746;2023-01-29T06:36:32;99914.53;;;2.95;100.00
8320;BME280;4197;42.130;24.746;2023-01-29T06:39:01;99913.63;;;2.99;100.00
8320;BME280;4197;42.130;24.746;2023-01-29T06:41:29;99914.66;;;3.03;100.00
8320;BME280;4197;42.130;24.746;2023-01-29T06:43:59;99921.00;;;3.07;100.00
8320;BME280;4197;42.130;24.746;2023-01-29T06:46:27;99919.34;;;3.11;100.00
8320;BME280;4197;42.130;24.746;2023-01-29T06:48:57;99916.88;;;3.15;100.00
8320;BME280;4197;42.130;24.746;2023-01-29T06:51:26;99926.53;;;3.16;100.00
8320;BME280;4197;42.130;24.746;2023-01-29T06:53:54;99925.56;;;3.26;100.00
8320;BME280;4197;42.130;24.746;2023-01-29T06:56:22;99923.88;;;3.30;100.00
8320;BME280;4197;42.130;24.746;2023-01-29T06:58:51;99930.44;;;3.38;99.79
8320;BME280;4197;42.130;24.746;2023-01-29T07:01:20;99932.94;;;3.34;98.74
8320;BME280;4197;42.130;24.746;2023-01-29T07:04:01;99933.63;;;3.40;98.58
8320;BME280;4197;42.130;24.746;2023-01-29T07:06:30;99937.72;;;3.51;97.20
8320;BME280;4197;42.130;24.746;2023-01-29T07:08:58;99935.91;;;3.46;97.95
8320;BME280;4197;42.130;24.746;2023-01-29T07:11:26;99943.69;;;3.48;99.22
8320;BME280;4197;42.130;24.746;2023-01-29T07:13:54;99942.31;;;3.50;97.97
8320;BME280;4197;42.130;24.746;2023-01-29T07:16:24;99949.75;;;3.53;98.52
8320;BME280;4197;42.130;24.746;2023-01-29T07:18:54;99945.84;;;3.46;98.42
8320;BME280;4197;42.130;24.746;2023-01-29T07:21:22;99945.84;;;3.46;99.59
8320;BME280;4197;42.130;24.746;2023-01-29T07:23:50;99951.22;;;3.46;100.00
8320;BME280;4197;42.130;24.746;2023-01-29T07:26:18;99955.00;;;3.45;100.00
8320;BME280;4197;42.130;24.746;2023-01-29T07:28:46;99958.97;;;3.47;100.00
8320;BME280;4197;42.130;24.746;2023-01-29T07:31:14;99957.09;;;3.48;100.00
8320;BME280;4197;42.130;24.746;2023-01-29T07:33:44;99955.78;;;3.45;100.00
8320;BME280;4197;42.130;24.746;2023-01-29T07:36:13;99947.47;;;3.47;100.00
8320;BME280;4197;42.130;24.746;2023-01-29T07:38:41;99952.25;;;3.50;100.00
8320;BME280;4197;42.130;24.746;2023-01-29T07:41:10;99949.84;;;3.48;100.00
8320;BME280;4197;42.130;24.746;2023-01-29T07:43:38;99945.69;;;3.56;100.00
8320;BME280;4197;42.130;24.746;2023-01-29T07:46:06;99955.63;;;3.55;100.00
8320;BME280;4197;42.130;24.746;2023-01-29T07:48:35;99954.06;;;3.68;100.00
8320;BME280;4197;42.130;24.746;2023-01-29T07:51:04;99958.03;;;3.71;100.00
8320;BME280;4197;42.130;24.746;2023-01-29T07:53:33;99950.78;;;3.57;100.00
8320;BME280;4197;42.130;24.746;2023-01-29T07:56:01;99958.63;;;3.68;100.00
8320;BME280;4197;42.130;24.746;2023-01-29T07:58:30;99963.03;;;3.77;100.00
8320;BME280;4197;42.130;24.746;2023-01-29T08:01:04;99963.13;;;3.72;100.00
8320;BME280;4197;42.130;24.746;2023-01-29T08:03:33;99966.16;;;3.66;100.00
8320;BME280;4197;42.130;24.746;2023-01-29T08:06:04;99969.69;;;3.80;100.00
8320;BME280;4197;42.130;24.746;2023-01-29T08:08:32;99973.34;;;3.70;100.00
8320;BME280;4197;42.130;24.746;2023-01-29T08:11:01;99976.53;;;3.72;100.00
8320;BME280;4197;42.130;24.746;2023-01-29T08:13:32;99972.97;;;3.77;100.00
8320;BME280;4197;42.130;24.746;2023-01-29T08:16:01;99979.03;;;3.83;100.00
8320;BME280;4197;42.130;24.746;2023-01-29T08:18:35;99975.16;;;3.89;100.00
8320;BME280;4197;42.130;24.746;2023-01-29T08:21:06;99973.78;;;3.91;100.00
8320;BME280;4197;42.130;24.746;2023-01-29T08:23:35;99976.84;;;3.98;100.00
8320;BME280;4197;42.130;24.746;2023-01-29T08:26:04;99978.34;;;4.05;100.00
8320;BME280;4197;42.130;24.746;2023-01-29T08:28:32;99981.84;;;4.05;100.00
8320;BME280;4197;42.130;24.746;2023-01-29T08:31:01;99990.97;;;4.18;100.00
8320;BME280;4197;42.130;24.746;2023-01-29T08:33:30;99986.13;;;4.20;100.00
8320;BME280;4197;42.130;24.746;2023-01-29T08:36:08;99980.56;;;4.30;100.00
8320;BME280;4197;42.130;24.746;2023-01-29T08:38:36;99985.34;;;4.33;100.00
8320;BME280;4197;42.130;24.746;2023-01-29T08:41:05;99987.69;;;4.35;100.00
8320;BME280;4197;42.130;24.746;2023-01-29T08:43:34;99987.09;;;4.38;100.00
8320;BME280;4197;42.130;24.746;2023-01-29T08:46:03;99989.69;;;4.43;100.00
8320;BME280;4197;42.130;24.746;2023-01-29T08:48:32;99991.09;;;4.40;100.00
8320;BME280;4197;42.130;24.746;2023-01-29T08:51:01;100001.13;;;4.35;100.00
8320;BME280;4197;42.130;24.746;2023-01-29T08:53:31;100000.25;;;4.25;100.00
8320;BME280;4197;42.130;24.746;2023-01-29T08:56:00;100002.41;;;4.23;100.00
8320;BME280;4197;42.130;24.746;2023-01-29T08:58:28;99993.75;;;4.13;100.00
8320;BME280;4197;42.130;24.746;2023-01-29T09:01:04;99995.88;;;4.30;100.00
8320;BME280;4197;42.130;24.746;2023-01-29T09:03:32;99991.59;;;4.42;100.00
8320;BME280;4197;42.130;24.746;2023-01-29T09:06:01;99997.06;;;4.37;100.00
8320;BME280;4197;42.130;24.746;2023-01-29T09:08:30;100000.16;;;4.31;100.00
8320;BME280;4197;42.130;24.746;2023-01-29T09:10:58;99989.09;;;4.32;100.00
8320;BME280;4197;42.130;24.746;2023-01-29T09:13:27;99997.56;;;4.39;100.00
8320;BME280;4197;42.130;24.746;2023-01-29T09:15:58;99987.00;;;4.57;100.00
8320;BME280;4197;42.130;24.746;2023-01-29T09:18:26;99993.56;;;4.64;100.00
8320;BME280;4197;42.130;24.746;2023-01-29T09:20:55;99994.25;;;4.70;100.00
8320;BME280;4197;42.130;24.746;2023-01-29T09:23:23;99986.09;;;4.61;100.00
8320;BME280;4197;42.130;24.746;2023-01-29T09:25:53;99992.69;;;4.55;100.00
8320;BME280;4197;42.130;24.746;2023-01-29T09:28:22;99989.69;;;4.57;100.00
8320;BME280;4197;42.130;24.746;2023-01-29T09:30:50;99995.06;;;4.43;100.00
8320;BME280;4197;42.130;24.746;2023-01-29T09:33:19;99988.28;;;4.45;100.00
8320;BME280;4197;42.130;24.746;2023-01-29T09:35:51;99990.09;;;4.64;100.00
8320;BME280;4197;42.130;24.746;2023-01-29T09:38:19;99994.75;;;4.72;100.00
8320;BME280;4197;42.130;24.746;2023-01-29T09:40:57;99994.72;;;4.86;100.00
8320;BME280;4197;42.130;24.746;2023-01-29T09:43:39;99988.84;;;4.84;100.00
8320;BME280;4197;42.130;24.746;2023-01-29T09:46:16;99987.94;;;4.88;100.00
8320;BME280;4197;42.130;24.746;2023-01-29T09:48:49;99980.50;;;4.85;100.00
8320;BME280;4197;42.130;24.746;2023-01-29T09:51:25;99977.56;;;4.96;99.96
8320;BME280;4197;42.130;24.746;2023-01-29T09:54:02;99978.28;;;4.87;98.06
8320;BME280;4197;42.130;24.746;2023-01-29T09:56:36;99971.44;;;4.81;98.87
8320;BME280;4197;42.130;24.746;2023-01-29T09:59:04;99971.41;;;4.95;98.67
8320;BME280;4197;42.130;24.746;2023-01-29T10:01:37;99970.94;;;4.79;99.69
8320;BME280;4197;42.130;24.746;2023-01-29T10:04:31;99957.81;;;4.78;99.98
8320;BME280;4197;42.130;24.746;2023-01-29T10:07:21;99966.84;;;4.82;100.00
8320;BME280;4197;42.130;24.746;2023-01-29T10:13:03;99973.13;;;4.91;97.39
8320;BME280;4197;42.130;24.746;2023-01-29T10:15:48;99964.13;;;4.96;97.61
8320;BME280;4197;42.130;24.746;2023-01-29T10:21:32;99956.34;;;5.08;96.80
8320;BME280;4197;42.130;24.746;2023-01-29T10:24:13;99957.31;;;5.12;96.50
8320;BME280;4197;42.130;24.746;2023-01-29T10:26:44;99949.06;;;5.31;95.55
8320;BME280;4197;42.130;24.746;2023-01-29T10:29:17;99950.41;;;5.42;95.35
8320;BME280;4197;42.130;24.746;2023-01-29T10:31:51;99944.19;;;5.33;94.97
8320;BME280;4197;42.130;24.746;2023-01-29T10:34:29;99939.81;;;5.46;93.76
8320;BME280;4197;42.130;24.746;2023-01-29T10:37:00;99944.00;;;5.52;92.44
8320;BME280;4197;42.130;24.746;2023-01-29T10:39:39;99928.59;;;5.44;93.46
8320;BME280;4197;42.130;24.746;2023-01-29T10:42:19;99934.69;;;5.58;92.80
8320;BME280;4197;42.130;24.746;2023-01-29T10:45:02;99923.22;;;5.75;91.58
8320;BME280;4197;42.130;24.746;2023-01-29T10:50:45;99919.91;;;5.78;89.26
8320;BME280;4197;42.130;24.746;2023-01-29T10:53:24;99915.25;;;5.70;90.62
8320;BME280;4197;42.130;24.746;2023-01-29T10:56:00;99914.38;;;5.83;89.33
8320;BME280;4197;42.130;24.746;2023-01-29T10:58:51;99911.28;;;5.67;88.69
8320;BME280;4197;42.130;24.746;2023-01-29T11:01:22;99909.38;;;5.68;89.25
8320;BME280;4197;42.130;24.746;2023-01-29T11:03:57;99898.50;;;5.73;89.33
8320;BME280;4197;42.130;24.746;2023-01-29T11:06:30;99906.50;;;5.55;89.41
8320;BME280;4197;42.130;24.746;2023-01-29T11:09:03;99901.50;;;5.71;90.03
8320;BME280;4197;42.130;24.746;2023-01-29T11:11:38;99895.69;;;5.87;87.89
8320;BME280;4197;42.130;24.746;2023-01-29T11:14:12;99900.69;;;5.93;86.21
8320;BME280;4197;42.130;24.746;2023-01-29T11:16:44;99900.34;;;5.95;86.48
8320;BME280;4197;42.130;24.746;2023-01-29T11:19:14;99903.41;;;6.02;85.25
8320;BME280;4197;42.130;24.746;2023-01-29T11:21:51;99901.03;;;6.09;84.87
8320;BME280;4197;42.130;24.746;2023-01-29T11:24:20;99898.06;;;6.19;84.13
8320;BME280;4197;42.130;24.746;2023-01-29T11:26:51;99886.34;;;6.15;83.94
8320;BME280;4197;42.130;24.746;2023-01-29T11:29:32;99889.03;;;6.15;84.24
8320;BME280;4197;42.130;24.746;2023-01-29T11:32:04;99876.50;;;6.11;83.65
8320;BME280;4197;42.130;24.746;2023-01-29T11:34:33;99872.06;;;6.15;84.16
8320;BME280;4197;42.130;24.746;2023-01-29T11:37:03;99870.00;;;6.12;83.40
8320;BME280;4197;42.130;24.746;2023-01-29T11:39:43;99868.56;;;6.06;83.93
8320;BME280;4197;42.130;24.746;2023-01-29T11:42:18;99862.38;;;6.05;83.53
8320;BME280;4197;42.130;24.746;2023-01-29T11:44:50;99865.88;;;6.06;83.70
8320;BME280;4197;42.130;24.746;2023-01-29T11:47:21;99858.44;;;6.20;82.13
8320;BME280;4197;42.130;24.746;2023-01-29T11:49:53;99850.09;;;6.30;81.77
8320;BME280;4197;42.130;24.746;2023-01-29T11:52:24;99845.34;;;6.36;81.85
8320;BME280;4197;42.130;24.746;2023-01-29T11:54:57;99849.94;;;6.44;81.09
8320;BME280;4197;42.130;24.746;2023-01-29T11:57:31;99850.22;;;6.34;81.30
8320;BME280;4197;42.130;24.746;2023-01-29T12:00:04;99850.09;;;6.30;81.13
8320;BME280;4197;42.130;24.746;2023-01-29T12:02:36;99849.28;;;6.21;81.35
8320;BME280;4197;42.130;24.746;2023-01-29T12:05:15;99853.06;;;6.11;80.48
8320;BME280;4197;42.130;24.746;2023-01-29T12:07:47;99849.88;;;6.09;79.65
8320;BME280;4197;42.130;24.746;2023-01-29T12:10:33;99843.06;;;6.03;80.49
8320;BME280;4197;42.130;24.746;2023-01-29T12:13:08;99835.97;;;6.07;80.76
8320;BME280;4197;42.130;24.746;2023-01-29T12:15:46;99833.72;;;6.18;79.85
8320;BME280;4197;42.130;24.746;2023-01-29T12:18:22;99834.84;;;6.25;79.66
8320;BME280;4197;42.130;24.746;2023-01-29T12:20:56;99835.19;;;6.33;79.39
8320;BME280;4197;42.130;24.746;2023-01-29T12:23:38;99833.91;;;6.39;78.94
8320;BME280;4197;42.130;24.746;2023-01-29T12:26:10;99827.13;;;6.50;78.02
8320;BME280;4197;42.130;24.746;2023-01-29T12:28:49;99825.19;;;6.59;77.90
8320;BME280;4197;42.130;24.746;2023-01-29T12:31:28;99825.53;;;6.58;77.63
8320;BME280;4197;42.130;24.746;2023-01-29T12:34:07;99818.88;;;6.64;76.10
8320;BME280;4197;42.130;24.746;2023-01-29T12:36:40;99814.41;;;6.59;75.89
8320;BME280;4197;42.130;24.746;2023-01-29T12:39:14;99812.53;;;6.51;76.27
8320;BME280;4197;42.130;24.746;2023-01-29T12:41:48;99812.06;;;6.40;76.77
8320;BME280;4197;42.130;24.746;2023-01-29T12:44:21;99810.78;;;6.55;77.04
8320;BME280;4197;42.130;24.746;2023-01-29T12:46:53;99816.81;;;6.52;76.55
8320;BME280;4197;42.130;24.746;2023-01-29T12:49:27;99815.69;;;6.53;75.74
8320;BME280;4197;42.130;24.746;2023-01-29T12:52:01;99818.09;;;6.55;75.65
8320;BME280;4197;42.130;24.746;2023-01-29T12:54:38;99816.66;;;6.48;75.79
8320;BME280;4197;42.130;24.746;2023-01-29T12:57:22;99815.06;;;6.39;76.50
8320;BME280;4197;42.130;24.746;2023-01-29T12:59:56;99814.13;;;6.35;76.96
8320;BME280;4197;42.130;24.746;2023-01-29T13:02:35;99820.31;;;6.44;76.72
8320;BME280;4197;42.130;24.746;2023-01-29T13:05:18;99819.19;;;6.45;75.86
8320;BME280;4197;42.130;24.746;2023-01-29T13:07:55;99814.91;;;6.44;76.34
8320;BME280;4197;42.130;24.746;2023-01-29T13:10:28;99818.72;;;6.43;76.55
8320;BME280;4197;42.130;24.746;2023-01-29T13:13:09;99816.34;;;6.50;76.52
8320;BME280;4197;42.130;24.746;2023-01-29T13:15:42;99822.34;;;6.64;75.23
8320;BME280;4197;42.130;24.746;2023-01-29T13:18:31;99822.84;;;6.40;76.20
8320;BME280;4197;42.130;24.746;2023-01-29T13:21:03;99815.84;;;6.48;75.89
8320;BME280;4197;42.130;24.746;2023-01-29T13:23:36;99818.41;;;6.53;74.37
8320;BME280;4197;42.130;24.746;2023-01-29T13:26:06;99823.00;;;6.44;73.50
8320;BME280;4197;42.130;24.746;2023-01-29T13:28:35;99819.34;;;6.31;74.00
8320;BME280;4197;42.130;24.746;2023-01-29T13:31:20;99816.50;;;6.19;73.28
8320;BME280;4197;42.130;24.746;2023-01-29T13:33:53;99818.25;;;6.32;73.01
8320;BME280;4197;42.130;24.746;2023-01-29T13:36:26;99816.81;;;6.35;73.02
8320;BME280;4197;42.130;24.746;2023-01-29T13:39:00;99816.97;;;6.38;72.24
8320;BME280;4197;42.130;24.746;2023-01-29T13:41:35;99821.88;;;6.28;72.95
8320;BME280;4197;42.130;24.746;2023-01-29T13:44:14;99813.31;;;6.25;73.15
8320;BME280;4197;42.130;24.746;2023-01-29T13:46:49;99808.72;;;6.17;73.26
8320;BME280;4197;42.130;24.746;2023-01-29T13:49:34;99823.31;;;6.34;71.75
8320;BME280;4197;42.130;24.746;2023-01-29T13:52:21;99816.34;;;6.24;71.53
8320;BME280;4197;42.130;24.746;2023-01-29T13:54:53;99822.66;;;6.19;72.59
8320;BME280;4197;42.130;24.746;2023-01-29T13:57:48;99828.53;;;6.21;73.10